sensor_id;sensor_type;location;lat;lon;timestamp;P1;durP1;ratioP1;P2;durP2;ratioP2
26319;SDS011;14024;52.226;5.200;2022-11-15T00:00:33;65.28;;;26.50;;
26319;SDS011;14024;52.226;5.200;2022-11-15T00:03:00;56.88;;;25.85;;
26319;SDS011;14024;52.226;5.200;2022-11-15T00:05:26;67.57;;;26.15;;
26319;SDS011;14024;52.226;5.200;2022-11-15T00:07:52;64.20;;;25.40;;
26319;SDS011;14024;52.226;5.200;2022-11-15T00:10:18;62.17;;;24.67;;
26319;SDS011;14024;52.226;5.200;2022-11-15T00:12:44;65.63;;;27.50;;
26319;SDS011;14024;52.226;5.200;2022-11-15T00:15:10;61.42;;;26.15;;
26319;SDS011;14024;52.226;5.200;2022-11-15T00:17:36;61.70;;;25.70;;
26319;SDS011;14024;52.226;5.200;2022-11-15T00:20:02;62.60;;;25.10;;
26319;SDS011;14024;52.226;5.200;2022-11-15T00:22:32;71.95;;;25.65;;
26319;SDS011;14024;52.226;5.200;2022-11-15T00:24:58;69.00;;;25.67;;
26319;SDS011;14024;52.226;5.200;2022-11-15T00:27:24;75.03;;;29.50;;
26319;SDS011;14024;52.226;5.200;2022-11-15T00:29:50;66.10;;;26.02;;
26319;SDS011;14024;52.226;5.200;2022-11-15T00:32:16;70.72;;;25.63;;
26319;SDS011;14024;52.226;5.200;2022-11-15T00:34:42;67.03;;;24.30;;
26319;SDS011;14024;52.226;5.200;2022-11-15T00:37:08;68.78;;;26.42;;
26319;SDS011;14024;52.226;5.200;2022-11-15T00:39:34;78.72;;;27.02;;
26319;SDS011;14024;52.226;5.200;2022-11-15T00:42:00;72.97;;;27.70;;
26319;SDS011;14024;52.226;5.200;2022-11-15T00:44:26;68.90;;;25.15;;
26319;SDS011;14024;52.226;5.200;2022-11-15T00:46:52;70.97;;;26.05;;
26319;SDS011;14024;52.226;5.200;2022-11-15T00:49:18;74.47;;;27.58;;
26319;SDS011;14024;52.226;5.200;2022-11-15T00:51:44;71.88;;;27.73;;
26319;SDS011;14024;52.226;5.200;2022-11-15T00:54:09;80.10;;;27.35;;
26319;SDS011;14024;52.226;5.200;2022-11-15T00:56:35;77.38;;;26.38;;
26319;SDS011;14024;52.226;5.200;2022-11-15T00:59:01;70.25;;;27.30;;
26319;SDS011;14024;52.226;5.200;2022-11-15T01:01:27;76.28;;;27.70;;
26319;SDS011;14024;52.226;5.200;2022-11-15T01:03:53;72.63;;;28.45;;
26319;SDS011;14024;52.226;5.200;2022-11-15T01:06:19;81.93;;;29.50;;
26319;SDS011;14024;52.226;5.200;2022-11-15T01:08:45;78.72;;;27.42;;
26319;SDS011;14024;52.226;5.200;2022-11-15T01:11:11;79.47;;;28.27;;
26319;SDS011;14024;52.226;5.200;2022-11-15T01:13:38;84.35;;;30.65;;
26319;SDS011;14024;52.226;5.200;2022-11-15T01:16:14;83.65;;;30.15;;
26319;SDS011;14024;52.226;5.200;2022-11-15T01:18:42;78.13;;;28.50;;
26319;SDS011;14024;52.226;5.200;2022-11-15T01:21:13;80.75;;;28.92;;
26319;SDS011;14024;52.226;5.200;2022-11-15T01:23:39;82.78;;;29.73;;
26319;SDS011;14024;52.226;5.200;2022-11-15T01:26:06;78.90;;;28.65;;
26319;SDS011;14024;52.226;5.200;2022-11-15T01:28:33;80.97;;;29.60;;
26319;SDS011;14024;52.226;5.200;2022-11-15T01:31:04;82.72;;;29.90;;
26319;SDS011;14024;52.226;5.200;2022-11-15T01:33:30;79.53;;;29.60;;
26319;SDS011;14024;52.226;5.200;2022-11-15T01:35:56;78.10;;;28.30;;
26319;SDS011;14024;52.226;5.200;2022-11-15T01:38:22;82.22;;;30.00;;
26319;SDS011;14024;52.226;5.200;2022-11-15T01:40:48;84.05;;;29.83;;
26319;SDS011;14024;52.226;5.200;2022-11-15T01:43:25;82.38;;;31.50;;
26319;SDS011;14024;52.226;5.200;2022-11-15T01:45:52;73.22;;;27.38;;
26319;SDS011;14024;52.226;5.200;2022-11-15T01:48:20;77.70;;;29.65;;
26319;SDS011;14024;52.226;5.200;2022-11-15T01:50:46;82.38;;;29.35;;
26319;SDS011;14024;52.226;5.200;2022-11-15T01:53:12;80.55;;;30.45;;
26319;SDS011;14024;52.226;5.200;2022-11-15T01:55:38;81.55;;;29.77;;
26319;SDS011;14024;52.226;5.200;2022-11-15T01:58:04;102.07;;;32.30;;
26319;SDS011;14024;52.226;5.200;2022-11-15T02:00:31;85.55;;;33.67;;
26319;SDS011;14024;52.226;5.200;2022-11-15T02:02:57;88.85;;;33.00;;
26319;SDS011;14024;52.226;5.200;2022-11-15T02:05:23;87.18;;;31.77;;
26319;SDS011;14024;52.226;5.200;2022-11-15T02:07:49;86.15;;;31.15;;
26319;SDS011;14024;52.226;5.200;2022-11-15T02:10:19;86.10;;;32.08;;
26319;SDS011;14024;52.226;5.200;2022-11-15T02:12:45;94.47;;;34.35;;
26319;SDS011;14024;52.226;5.200;2022-11-15T02:15:12;81.40;;;31.20;;
26319;SDS011;14024;52.226;5.200;2022-11-15T02:25:13;90.85;;;34.25;;
26319;SDS011;14024;52.226;5.200;2022-11-15T02:30:41;109.22;;;35.45;;
26319;SDS011;14024;52.226;5.200;2022-11-15T02:33:14;91.10;;;34.88;;
26319;SDS011;14024;52.226;5.200;2022-11-15T02:38:28;93.65;;;34.35;;
26319;SDS011;14024;52.226;5.200;2022-11-15T02:43:31;91.25;;;34.63;;
26319;SDS011;14024;52.226;5.200;2022-11-15T02:46:18;94.05;;;34.80;;
26319;SDS011;14024;52.226;5.200;2022-11-15T02:48:46;90.90;;;33.63;;
26319;SDS011;14024;52.226;5.200;2022-11-15T02:51:12;95.72;;;35.50;;
26319;SDS011;14024;52.226;5.200;2022-11-15T02:53:39;89.63;;;33.75;;
26319;SDS011;14024;52.226;5.200;2022-11-15T02:56:05;94.43;;;36.13;;
26319;SDS011;14024;52.226;5.200;2022-11-15T02:58:52;90.95;;;34.78;;
26319;SDS011;14024;52.226;5.200;2022-11-15T03:04:16;99.38;;;34.65;;
26319;SDS011;14024;52.226;5.200;2022-11-15T03:06:49;93.65;;;33.15;;
26319;SDS011;14024;52.226;5.200;2022-11-15T03:11:48;102.95;;;34.78;;
26319;SDS011;14024;52.226;5.200;2022-11-15T03:14:35;101.15;;;34.88;;
26319;SDS011;14024;52.226;5.200;2022-11-15T03:19:46;96.85;;;34.85;;
26319;SDS011;14024;52.226;5.200;2022-11-15T03:22:20;107.30;;;34.53;;
26319;SDS011;14024;52.226;5.200;2022-11-15T03:27:15;96.22;;;34.38;;
26319;SDS011;14024;52.226;5.200;2022-11-15T03:29:44;99.18;;;35.88;;
26319;SDS011;14024;52.226;5.200;2022-11-15T03:32:12;89.40;;;35.60;;
26319;SDS011;14024;52.226;5.200;2022-11-15T03:34:47;93.43;;;36.15;;
26319;SDS011;14024;52.226;5.200;2022-11-15T03:37:15;98.75;;;35.38;;
26319;SDS011;14024;52.226;5.200;2022-11-15T03:39:42;92.75;;;34.92;;
26319;SDS011;14024;52.226;5.200;2022-11-15T03:47:27;113.35;;;37.00;;
26319;SDS011;14024;52.226;5.200;2022-11-15T03:50:08;106.55;;;36.92;;
26319;SDS011;14024;52.226;5.200;2022-11-15T03:52:36;107.13;;;37.40;;
26319;SDS011;14024;52.226;5.200;2022-11-15T03:55:02;114.40;;;37.42;;
26319;SDS011;14024;52.226;5.200;2022-11-15T03:57:29;101.30;;;36.00;;
26319;SDS011;14024;52.226;5.200;2022-11-15T03:59:55;108.35;;;36.90;;
26319;SDS011;14024;52.226;5.200;2022-11-15T04:02:21;106.20;;;35.40;;
26319;SDS011;14024;52.226;5.200;2022-11-15T04:04:47;86.97;;;36.72;;
26319;SDS011;14024;52.226;5.200;2022-11-15T04:07:13;95.07;;;37.85;;
26319;SDS011;14024;52.226;5.200;2022-11-15T04:09:39;88.53;;;36.72;;
26319;SDS011;14024;52.226;5.200;2022-11-15T04:12:23;83.10;;;36.03;;
26319;SDS011;14024;52.226;5.200;2022-11-15T04:15:03;97.47;;;36.88;;
26319;SDS011;14024;52.226;5.200;2022-11-15T04:17:32;85.10;;;34.13;;
26319;SDS011;14024;52.226;5.200;2022-11-15T04:19:58;79.63;;;33.83;;
26319;SDS011;14024;52.226;5.200;2022-11-15T04:22:43;81.97;;;35.53;;
26319;SDS011;14024;52.226;5.200;2022-11-15T04:25:28;81.18;;;34.47;;
26319;SDS011;14024;52.226;5.200;2022-11-15T04:27:54;82.57;;;36.03;;
26319;SDS011;14024;52.226;5.200;2022-11-15T04:30:20;82.07;;;33.80;;
26319;SDS011;14024;52.226;5.200;2022-11-15T04:32:45;85.18;;;35.22;;
26319;SDS011;14024;52.226;5.200;2022-11-15T04:35:11;91.50;;;34.35;;
26319;SDS011;14024;52.226;5.200;2022-11-15T04:37:37;78.53;;;33.72;;
26319;SDS011;14024;52.226;5.200;2022-11-15T04:40:03;79.53;;;31.88;;
26319;SDS011;14024;52.226;5.200;2022-11-15T04:42:30;72.90;;;33.92;;
26319;SDS011;14024;52.226;5.200;2022-11-15T04:44:55;78.05;;;32.58;;
26319;SDS011;14024;52.226;5.200;2022-11-15T04:47:21;65.55;;;30.10;;
26319;SDS011;14024;52.226;5.200;2022-11-15T04:49:47;65.50;;;31.73;;
26319;SDS011;14024;52.226;5.200;2022-11-15T04:52:13;75.35;;;32.90;;
26319;SDS011;14024;52.226;5.200;2022-11-15T04:54:39;70.78;;;30.35;;
26319;SDS011;14024;52.226;5.200;2022-11-15T04:57:07;71.57;;;30.67;;
26319;SDS011;14024;52.226;5.200;2022-11-15T04:59:33;65.45;;;32.42;;
26319;SDS011;14024;52.226;5.200;2022-11-15T05:01:59;70.53;;;30.90;;
26319;SDS011;14024;52.226;5.200;2022-11-15T05:04:24;72.53;;;29.88;;
26319;SDS011;14024;52.226;5.200;2022-11-15T05:06:51;64.75;;;29.77;;
26319;SDS011;14024;52.226;5.200;2022-11-15T05:09:17;63.65;;;30.33;;
26319;SDS011;14024;52.226;5.200;2022-11-15T05:11:44;64.05;;;30.13;;
26319;SDS011;14024;52.226;5.200;2022-11-15T05:14:10;67.70;;;30.48;;
26319;SDS011;14024;52.226;5.200;2022-11-15T05:16:36;64.53;;;28.70;;
26319;SDS011;14024;52.226;5.200;2022-11-15T05:19:02;68.03;;;30.75;;
26319;SDS011;14024;52.226;5.200;2022-11-15T05:21:28;61.88;;;28.90;;
26319;SDS011;14024;52.226;5.200;2022-11-15T05:23:55;66.28;;;29.92;;
26319;SDS011;14024;52.226;5.200;2022-11-15T05:26:21;63.50;;;28.38;;
26319;SDS011;14024;52.226;5.200;2022-11-15T05:28:51;65.35;;;28.40;;
26319;SDS011;14024;52.226;5.200;2022-11-15T05:31:17;60.38;;;29.88;;
26319;SDS011;14024;52.226;5.200;2022-11-15T05:33:43;61.28;;;27.90;;
26319;SDS011;14024;52.226;5.200;2022-11-15T05:36:20;56.05;;;28.05;;
26319;SDS011;14024;52.226;5.200;2022-11-15T05:38:48;57.00;;;27.55;;
26319;SDS011;14024;52.226;5.200;2022-11-15T05:41:14;58.70;;;27.70;;
26319;SDS011;14024;52.226;5.200;2022-11-15T05:43:41;60.15;;;28.52;;
26319;SDS011;14024;52.226;5.200;2022-11-15T05:46:07;59.00;;;27.10;;
26319;SDS011;14024;52.226;5.200;2022-11-15T05:48:34;57.63;;;27.02;;
26319;SDS011;14024;52.226;5.200;2022-11-15T05:51:00;66.53;;;27.75;;
26319;SDS011;14024;52.226;5.200;2022-11-15T05:53:27;60.15;;;27.20;;
26319;SDS011;14024;52.226;5.200;2022-11-15T05:55:53;56.42;;;27.50;;
26319;SDS011;14024;52.226;5.200;2022-11-15T05:58:19;63.95;;;28.40;;
26319;SDS011;14024;52.226;5.200;2022-11-15T06:00:46;56.67;;;27.33;;
26319;SDS011;14024;52.226;5.200;2022-11-15T06:03:13;59.47;;;26.73;;
26319;SDS011;14024;52.226;5.200;2022-11-15T06:05:39;61.72;;;27.17;;
26319;SDS011;14024;52.226;5.200;2022-11-15T06:08:05;55.97;;;26.02;;
26319;SDS011;14024;52.226;5.200;2022-11-15T06:10:32;53.70;;;27.60;;
26319;SDS011;14024;52.226;5.200;2022-11-15T06:12:58;59.50;;;26.77;;
26319;SDS011;14024;52.226;5.200;2022-11-15T06:15:24;63.13;;;27.70;;
26319;SDS011;14024;52.226;5.200;2022-11-15T06:17:50;63.55;;;28.10;;
26319;SDS011;14024;52.226;5.200;2022-11-15T06:20:16;51.90;;;26.30;;
26319;SDS011;14024;52.226;5.200;2022-11-15T06:22:42;67.25;;;27.92;;
26319;SDS011;14024;52.226;5.200;2022-11-15T06:25:08;64.50;;;27.30;;
26319;SDS011;14024;52.226;5.200;2022-11-15T06:27:34;54.15;;;26.17;;
26319;SDS011;14024;52.226;5.200;2022-11-15T06:30:00;54.25;;;25.77;;
26319;SDS011;14024;52.226;5.200;2022-11-15T06:32:26;55.55;;;26.63;;
26319;SDS011;14024;52.226;5.200;2022-11-15T06:34:54;56.60;;;26.50;;
26319;SDS011;14024;52.226;5.200;2022-11-15T06:37:20;57.80;;;27.10;;
26319;SDS011;14024;52.226;5.200;2022-11-15T06:39:46;54.58;;;27.42;;
26319;SDS011;14024;52.226;5.200;2022-11-15T06:42:12;53.47;;;26.42;;
26319;SDS011;14024;52.226;5.200;2022-11-15T06:44:38;62.55;;;26.70;;
26319;SDS011;14024;52.226;5.200;2022-11-15T06:47:04;57.03;;;25.77;;
26319;SDS011;14024;52.226;5.200;2022-11-15T06:49:30;57.03;;;26.85;;
26319;SDS011;14024;52.226;5.200;2022-11-15T06:51:56;60.95;;;26.58;;
26319;SDS011;14024;52.226;5.200;2022-11-15T06:54:22;57.95;;;26.95;;
26319;SDS011;14024;52.226;5.200;2022-11-15T06:56:48;55.22;;;26.60;;
26319;SDS011;14024;52.226;5.200;2022-11-15T06:59:13;60.65;;;26.70;;
26319;SDS011;14024;52.226;5.200;2022-11-15T07:01:39;51.08;;;25.13;;
26319;SDS011;14024;52.226;5.200;2022-11-15T07:04:05;50.90;;;25.58;;
26319;SDS011;14024;52.226;5.200;2022-11-15T07:06:31;52.88;;;25.48;;
26319;SDS011;14024;52.226;5.200;2022-11-15T07:08:57;50.33;;;25.75;;
26319;SDS011;14024;52.226;5.200;2022-11-15T07:11:23;55.50;;;25.45;;
26319;SDS011;14024;52.226;5.200;2022-11-15T07:13:49;56.80;;;25.92;;
26319;SDS011;14024;52.226;5.200;2022-11-15T07:16:15;54.83;;;25.95;;
26319;SDS011;14024;52.226;5.200;2022-11-15T07:18:41;50.88;;;24.90;;
26319;SDS011;14024;52.226;5.200;2022-11-15T07:21:08;52.42;;;25.45;;
26319;SDS011;14024;52.226;5.200;2022-11-15T07:23:38;52.88;;;25.40;;
26319;SDS011;14024;52.226;5.200;2022-11-15T07:26:04;55.30;;;26.10;;
26319;SDS011;14024;52.226;5.200;2022-11-15T07:28:30;55.83;;;27.60;;
26319;SDS011;14024;52.226;5.200;2022-11-15T07:30:56;49.28;;;24.85;;
26319;SDS011;14024;52.226;5.200;2022-11-15T07:33:22;50.80;;;26.45;;
26319;SDS011;14024;52.226;5.200;2022-11-15T07:35:48;50.72;;;26.70;;
26319;SDS011;14024;52.226;5.200;2022-11-15T07:38:14;52.75;;;26.63;;
26319;SDS011;14024;52.226;5.200;2022-11-15T07:40:44;47.55;;;25.17;;
26319;SDS011;14024;52.226;5.200;2022-11-15T07:43:10;51.10;;;25.45;;
26319;SDS011;14024;52.226;5.200;2022-11-15T07:45:39;52.00;;;24.58;;
26319;SDS011;14024;52.226;5.200;2022-11-15T07:48:06;53.90;;;25.20;;
26319;SDS011;14024;52.226;5.200;2022-11-15T07:50:32;49.55;;;24.05;;
26319;SDS011;14024;52.226;5.200;2022-11-15T07:52:58;46.05;;;23.60;;
26319;SDS011;14024;52.226;5.200;2022-11-15T07:55:25;49.55;;;23.33;;
26319;SDS011;14024;52.226;5.200;2022-11-15T07:58:01;51.17;;;24.67;;
26319;SDS011;14024;52.226;5.200;2022-11-15T08:00:28;45.78;;;22.23;;
26319;SDS011;14024;52.226;5.200;2022-11-15T08:03:00;52.03;;;22.63;;
26319;SDS011;14024;52.226;5.200;2022-11-15T08:05:26;44.45;;;25.00;;
26319;SDS011;14024;52.226;5.200;2022-11-15T08:07:54;50.55;;;25.02;;
26319;SDS011;14024;52.226;5.200;2022-11-15T08:10:20;42.25;;;21.98;;
26319;SDS011;14024;52.226;5.200;2022-11-15T08:12:46;42.38;;;20.35;;
26319;SDS011;14024;52.226;5.200;2022-11-15T08:15:12;42.78;;;21.60;;
26319;SDS011;14024;52.226;5.200;2022-11-15T08:17:38;47.28;;;23.05;;
26319;SDS011;14024;52.226;5.200;2022-11-15T08:20:04;41.20;;;20.65;;
26319;SDS011;14024;52.226;5.200;2022-11-15T08:22:30;43.28;;;20.92;;
26319;SDS011;14024;52.226;5.200;2022-11-15T08:24:57;46.40;;;22.17;;
26319;SDS011;14024;52.226;5.200;2022-11-15T08:27:23;40.50;;;21.10;;
26319;SDS011;14024;52.226;5.200;2022-11-15T08:29:49;44.42;;;21.00;;
26319;SDS011;14024;52.226;5.200;2022-11-15T08:32:15;42.50;;;19.83;;
26319;SDS011;14024;52.226;5.200;2022-11-15T08:34:42;44.38;;;19.95;;
26319;SDS011;14024;52.226;5.200;2022-11-15T08:37:08;40.00;;;19.15;;
26319;SDS011;14024;52.226;5.200;2022-11-15T08:39:34;39.75;;;19.27;;
26319;SDS011;14024;52.226;5.200;2022-11-15T08:42:00;41.85;;;20.08;;
26319;SDS011;14024;52.226;5.200;2022-11-15T08:44:26;39.33;;;17.98;;
26319;SDS011;14024;52.226;5.200;2022-11-15T08:46:52;41.05;;;20.45;;
26319;SDS011;14024;52.226;5.200;2022-11-15T08:49:18;37.88;;;17.50;;
26319;SDS011;14024;52.226;5.200;2022-11-15T08:51:44;38.50;;;18.15;;
26319;SDS011;14024;52.226;5.200;2022-11-15T08:54:10;35.47;;;17.02;;
26319;SDS011;14024;52.226;5.200;2022-11-15T08:56:36;38.42;;;17.95;;
26319;SDS011;14024;52.226;5.200;2022-11-15T08:59:02;35.83;;;17.17;;
26319;SDS011;14024;52.226;5.200;2022-11-15T09:01:28;32.42;;;16.67;;
26319;SDS011;14024;52.226;5.200;2022-11-15T09:03:54;30.98;;;16.85;;
26319;SDS011;14024;52.226;5.200;2022-11-15T09:06:20;36.30;;;17.13;;
26319;SDS011;14024;52.226;5.200;2022-11-15T09:08:46;30.75;;;15.25;;
26319;SDS011;14024;52.226;5.200;2022-11-15T09:11:13;30.98;;;15.05;;
26319;SDS011;14024;52.226;5.200;2022-11-15T09:13:41;31.50;;;15.15;;
26319;SDS011;14024;52.226;5.200;2022-11-15T09:16:07;31.88;;;13.95;;
26319;SDS011;14024;52.226;5.200;2022-11-15T09:18:33;31.48;;;13.50;;
26319;SDS011;14024;52.226;5.200;2022-11-15T09:21:00;28.90;;;14.43;;
26319;SDS011;14024;52.226;5.200;2022-11-15T09:23:27;27.90;;;13.23;;
26319;SDS011;14024;52.226;5.200;2022-11-15T09:25:58;33.97;;;14.05;;
26319;SDS011;14024;52.226;5.200;2022-11-15T09:28:24;26.55;;;11.85;;
26319;SDS011;14024;52.226;5.200;2022-11-15T09:30:50;35.85;;;12.93;;
26319;SDS011;14024;52.226;5.200;2022-11-15T09:33:16;24.73;;;12.48;;
26319;SDS011;14024;52.226;5.200;2022-11-15T09:35:42;27.92;;;11.90;;
26319;SDS011;14024;52.226;5.200;2022-11-15T09:38:09;22.70;;;11.43;;
26319;SDS011;14024;52.226;5.200;2022-11-15T09:40:36;22.63;;;12.55;;
26319;SDS011;14024;52.226;5.200;2022-11-15T09:45:32;21.98;;;11.07;;
26319;SDS011;14024;52.226;5.200;2022-11-15T09:48:07;26.90;;;11.73;;
26319;SDS011;14024;52.226;5.200;2022-11-15T09:53:04;28.75;;;11.70;;
26319;SDS011;14024;52.226;5.200;2022-11-15T09:55:35;22.23;;;11.70;;
26319;SDS011;14024;52.226;5.200;2022-11-15T10:00:37;24.10;;;12.32;;
26319;SDS011;14024;52.226;5.200;2022-11-15T10:03:08;22.83;;;10.52;;
26319;SDS011;14024;52.226;5.200;2022-11-15T10:05:37;20.92;;;11.48;;
26319;SDS011;14024;52.226;5.200;2022-11-15T10:08:19;23.67;;;10.48;;
26319;SDS011;14024;52.226;5.200;2022-11-15T10:10:49;23.77;;;10.95;;
26319;SDS011;14024;52.226;5.200;2022-11-15T10:13:20;15.93;;;9.07;;
26319;SDS011;14024;52.226;5.200;2022-11-15T10:15:48;18.63;;;9.55;;
26319;SDS011;14024;52.226;5.200;2022-11-15T10:18:16;21.55;;;9.30;;
26319;SDS011;14024;52.226;5.200;2022-11-15T10:20:48;19.33;;;8.77;;
26319;SDS011;14024;52.226;5.200;2022-11-15T10:23:16;15.85;;;7.93;;
26319;SDS011;14024;52.226;5.200;2022-11-15T10:25:43;16.35;;;8.27;;
26319;SDS011;14024;52.226;5.200;2022-11-15T10:28:16;17.38;;;7.50;;
26319;SDS011;14024;52.226;5.200;2022-11-15T10:30:44;21.20;;;8.60;;
26319;SDS011;14024;52.226;5.200;2022-11-15T10:33:12;16.27;;;8.20;;
26319;SDS011;14024;52.226;5.200;2022-11-15T10:35:39;19.38;;;7.72;;
26319;SDS011;14024;52.226;5.200;2022-11-15T10:38:07;16.23;;;7.35;;
26319;SDS011;14024;52.226;5.200;2022-11-15T10:40:33;11.15;;;6.75;;
26319;SDS011;14024;52.226;5.200;2022-11-15T10:45:35;18.50;;;7.28;;
26319;SDS011;14024;52.226;5.200;2022-11-15T10:50:40;13.23;;;7.50;;
26319;SDS011;14024;52.226;5.200;2022-11-15T10:55:52;13.05;;;7.60;;
26319;SDS011;14024;52.226;5.200;2022-11-15T10:58:20;12.85;;;7.13;;
26319;SDS011;14024;52.226;5.200;2022-11-15T11:00:47;12.15;;;7.47;;
26319;SDS011;14024;52.226;5.200;2022-11-15T11:03:57;22.92;;;8.70;;
26319;SDS011;14024;52.226;5.200;2022-11-15T11:06:06;14.43;;;7.28;;
26319;SDS011;14024;52.226;5.200;2022-11-15T11:08:33;16.55;;;7.28;;
26319;SDS011;14024;52.226;5.200;2022-11-15T11:11:00;14.88;;;6.82;;
26319;SDS011;14024;52.226;5.200;2022-11-15T11:13:33;15.98;;;6.68;;
26319;SDS011;14024;52.226;5.200;2022-11-15T11:21:14;11.40;;;5.95;;
26319;SDS011;14024;52.226;5.200;2022-11-15T11:31:44;12.63;;;5.40;;
26319;SDS011;14024;52.226;5.200;2022-11-15T11:42:13;7.85;;;3.42;;
26319;SDS011;14024;52.226;5.200;2022-11-15T11:47:12;8.45;;;3.70;;
26319;SDS011;14024;52.226;5.200;2022-11-15T11:49:59;13.15;;;4.25;;
26319;SDS011;14024;52.226;5.200;2022-11-15T11:52:26;9.43;;;3.42;;
26319;SDS011;14024;52.226;5.200;2022-11-15T11:55:14;9.52;;;4.22;;
26319;SDS011;14024;52.226;5.200;2022-11-15T11:57:43;7.68;;;2.97;;
26319;SDS011;14024;52.226;5.200;2022-11-15T12:00:20;7.97;;;3.17;;
26319;SDS011;14024;52.226;5.200;2022-11-15T12:05:22;9.90;;;2.78;;
26319;SDS011;14024;52.226;5.200;2022-11-15T12:07:49;9.50;;;3.65;;
26319;SDS011;14024;52.226;5.200;2022-11-15T12:13:01;8.50;;;2.95;;
26319;SDS011;14024;52.226;5.200;2022-11-15T12:15:30;5.60;;;2.83;;
26319;SDS011;14024;52.226;5.200;2022-11-15T12:17:57;8.45;;;2.45;;
26319;SDS011;14024;52.226;5.200;2022-11-15T12:20:24;9.45;;;2.53;;
26319;SDS011;14024;52.226;5.200;2022-11-15T12:25:35;10.35;;;2.22;;
26319;SDS011;14024;52.226;5.200;2022-11-15T12:28:11;8.23;;;2.53;;
26319;SDS011;14024;52.226;5.200;2022-11-15T12:30:42;9.15;;;2.25;;
26319;SDS011;14024;52.226;5.200;2022-11-15T12:33:28;4.55;;;2.03;;
26319;SDS011;14024;52.226;5.200;2022-11-15T12:35:58;11.35;;;2.03;;
26319;SDS011;14024;52.226;5.200;2022-11-15T12:41:31;9.23;;;1.92;;
26319;SDS011;14024;52.226;5.200;2022-11-15T12:43:57;9.27;;;3.00;;
26319;SDS011;14024;52.226;5.200;2022-11-15T12:48:59;13.85;;;3.20;;
26319;SDS011;14024;52.226;5.200;2022-11-15T12:56:35;8.10;;;2.10;;
26319;SDS011;14024;52.226;5.200;2022-11-15T12:59:01;7.47;;;2.33;;
26319;SDS011;14024;52.226;5.200;2022-11-15T13:06:38;6.78;;;2.00;;
26319;SDS011;14024;52.226;5.200;2022-11-15T13:09:49;4.10;;;1.77;;
26319;SDS011;14024;52.226;5.200;2022-11-15T13:11:51;12.73;;;3.95;;
26319;SDS011;14024;52.226;5.200;2022-11-15T13:17:24;11.30;;;2.45;;
26319;SDS011;14024;52.226;5.200;2022-11-15T13:19:52;6.25;;;2.10;;
26319;SDS011;14024;52.226;5.200;2022-11-15T13:22:20;4.95;;;2.53;;
26319;SDS011;14024;52.226;5.200;2022-11-15T13:25:04;9.55;;;2.17;;
26319;SDS011;14024;52.226;5.200;2022-11-15T13:27:40;2.40;;;1.75;;
26319;SDS011;14024;52.226;5.200;2022-11-15T13:30:12;3.30;;;1.73;;
26319;SDS011;14024;52.226;5.200;2022-11-15T13:32:39;9.55;;;2.22;;
26319;SDS011;14024;52.226;5.200;2022-11-15T13:35:06;5.78;;;1.92;;
26319;SDS011;14024;52.226;5.200;2022-11-15T13:37:32;6.55;;;1.92;;
26319;SDS011;14024;52.226;5.200;2022-11-15T13:40:10;11.55;;;2.58;;
26319;SDS011;14024;52.226;5.200;2022-11-15T13:42:41;8.05;;;2.00;;
26319;SDS011;14024;52.226;5.200;2022-11-15T13:45:11;5.97;;;1.92;;
26319;SDS011;14024;52.226;5.200;2022-11-15T13:47:38;9.27;;;1.92;;
26319;SDS011;14024;52.226;5.200;2022-11-15T13:50:05;5.97;;;2.15;;
26319;SDS011;14024;52.226;5.200;2022-11-15T13:52:35;10.18;;;3.20;;
26319;SDS011;14024;52.226;5.200;2022-11-15T13:55:08;9.45;;;2.30;;
26319;SDS011;14024;52.226;5.200;2022-11-15T13:57:41;9.60;;;2.38;;
26319;SDS011;14024;52.226;5.200;2022-11-15T14:02:53;4.55;;;2.08;;
26319;SDS011;14024;52.226;5.200;2022-11-15T14:05:21;8.70;;;2.65;;
26319;SDS011;14024;52.226;5.200;2022-11-15T14:07:57;4.68;;;2.40;;
26319;SDS011;14024;52.226;5.200;2022-11-15T14:10:28;5.78;;;2.28;;
26319;SDS011;14024;52.226;5.200;2022-11-15T14:12:55;6.90;;;2.53;;
26319;SDS011;14024;52.226;5.200;2022-11-15T14:15:26;7.15;;;2.72;;
26319;SDS011;14024;52.226;5.200;2022-11-15T14:17:53;7.65;;;2.45;;
26319;SDS011;14024;52.226;5.200;2022-11-15T14:20:29;6.20;;;2.95;;
26319;SDS011;14024;52.226;5.200;2022-11-15T14:22:58;7.97;;;2.80;;
26319;SDS011;14024;52.226;5.200;2022-11-15T14:25:25;17.10;;;3.20;;
26319;SDS011;14024;52.226;5.200;2022-11-15T14:30:37;8.73;;;2.78;;
26319;SDS011;14024;52.226;5.200;2022-11-15T14:35:50;8.05;;;3.10;;
26319;SDS011;14024;52.226;5.200;2022-11-15T14:38:16;9.73;;;3.20;;
26319;SDS011;14024;52.226;5.200;2022-11-15T14:40:42;12.35;;;3.00;;
26319;SDS011;14024;52.226;5.200;2022-11-15T14:43:09;7.55;;;4.45;;
26319;SDS011;14024;52.226;5.200;2022-11-15T14:45:36;13.35;;;3.65;;
26319;SDS011;14024;52.226;5.200;2022-11-15T14:48:02;10.30;;;2.67;;
26319;SDS011;14024;52.226;5.200;2022-11-15T14:50:28;4.15;;;2.70;;
26319;SDS011;14024;52.226;5.200;2022-11-15T14:52:54;10.10;;;3.20;;
26319;SDS011;14024;52.226;5.200;2022-11-15T14:57:46;9.70;;;2.42;;
26319;SDS011;14024;52.226;5.200;2022-11-15T15:00:13;5.22;;;2.50;;
26319;SDS011;14024;52.226;5.200;2022-11-15T15:02:40;8.05;;;2.40;;
26319;SDS011;14024;52.226;5.200;2022-11-15T15:05:12;6.75;;;2.47;;
26319;SDS011;14024;52.226;5.200;2022-11-15T15:07:38;11.07;;;3.47;;
26319;SDS011;14024;52.226;5.200;2022-11-15T15:10:04;6.28;;;2.55;;
26319;SDS011;14024;52.226;5.200;2022-11-15T15:12:30;5.57;;;3.05;;
26319;SDS011;14024;52.226;5.200;2022-11-15T15:14:56;9.20;;;2.83;;
26319;SDS011;14024;52.226;5.200;2022-11-15T15:17:22;11.48;;;3.17;;
26319;SDS011;14024;52.226;5.200;2022-11-15T15:19:48;10.27;;;2.80;;
26319;SDS011;14024;52.226;5.200;2022-11-15T15:22:15;8.88;;;2.35;;
26319;SDS011;14024;52.226;5.200;2022-11-15T15:24:42;6.75;;;2.35;;
26319;SDS011;14024;52.226;5.200;2022-11-15T15:27:08;6.28;;;3.00;;
26319;SDS011;14024;52.226;5.200;2022-11-15T15:29:34;5.80;;;2.38;;
26319;SDS011;14024;52.226;5.200;2022-11-15T15:32:01;6.03;;;2.85;;
26319;SDS011;14024;52.226;5.200;2022-11-15T15:34:27;12.63;;;2.55;;
26319;SDS011;14024;52.226;5.200;2022-11-15T15:39:34;8.02;;;2.08;;
26319;SDS011;14024;52.226;5.200;2022-11-15T15:42:00;7.18;;;2.55;;
26319;SDS011;14024;52.226;5.200;2022-11-15T15:44:26;6.03;;;2.35;;
26319;SDS011;14024;52.226;5.200;2022-11-15T15:46:53;5.47;;;2.63;;
26319;SDS011;14024;52.226;5.200;2022-11-15T15:49:19;4.55;;;2.25;;
26319;SDS011;14024;52.226;5.200;2022-11-15T15:51:45;6.68;;;2.15;;
26319;SDS011;14024;52.226;5.200;2022-11-15T15:54:11;12.77;;;2.90;;
26319;SDS011;14024;52.226;5.200;2022-11-15T15:56:37;5.35;;;2.58;;
26319;SDS011;14024;52.226;5.200;2022-11-15T15:59:03;7.45;;;2.38;;
26319;SDS011;14024;52.226;5.200;2022-11-15T16:01:29;4.60;;;2.40;;
26319;SDS011;14024;52.226;5.200;2022-11-15T16:03:54;7.38;;;2.67;;
26319;SDS011;14024;52.226;5.200;2022-11-15T16:06:39;9.52;;;2.50;;
26319;SDS011;14024;52.226;5.200;2022-11-15T16:09:10;4.72;;;2.38;;
26319;SDS011;14024;52.226;5.200;2022-11-15T16:11:37;11.43;;;2.30;;
26319;SDS011;14024;52.226;5.200;2022-11-15T16:14:03;5.22;;;2.22;;
26319;SDS011;14024;52.226;5.200;2022-11-15T16:16:29;7.18;;;2.17;;
26319;SDS011;14024;52.226;5.200;2022-11-15T16:18:55;4.43;;;2.10;;
26319;SDS011;14024;52.226;5.200;2022-11-15T16:21:21;5.35;;;3.00;;
26319;SDS011;14024;52.226;5.200;2022-11-15T16:23:47;7.47;;;2.20;;